Time;durP1;ratioP1;P1;durP2;ratioP2;P2;SDS_P1;SDS_P2;PMS_P1;PMS_P2;Temp;Humidity;BMP_temperature;BMP_pressure;BME280_temperature;BME280_humidity;BME280_pressure;Samples;Min_cycle;Max_cycle;Signal;HPM_P1;HPM_P2
2023/07/13 00:01:16;;;;;;;3.20;0.88;;;;;;;;;;5032596;28;20029;-85
2023/07/13 00:03:42;;;;;;;0.10;0.10;;;;;;;;;;5032662;28;20111;-85
2023/07/13 00:06:08;;;;;;;0.10;0.10;;;;;;;;;;5033041;28;20022;-86
2023/07/13 00:08:34;;;;;;;0.32;0.30;;;;;;;;;;5032543;28;20125;-85
2023/07/13 00:11:01;;;;;;;0.15;0.15;;;;;;;;;;5032154;28;20026;-84
2023/07/13 00:13:28;;;;;;;0.10;0.10;;;;;;;;;;5032367;28;20032;-86
2023/07/13 00:15:54;;;;;;;0.05;0.05;;;;;;;;;;5032050;28;20068;-86
2023/07/13 00:18:20;;;;;;;0.00;0.00;;;;;;;;;;5032487;28;20025;-85
2023/07/13 00:20:46;;;;;;;0.00;0.00;;;;;;;;;;5032738;28;20034;-85
2023/07/13 00:23:12;;;;;;;0.00;0.00;;;;;;;;;;5031725;28;20528;-85
2023/07/13 00:25:38;;;;;;;0.00;0.00;;;;;;;;;;5032115;28;20494;-85
2023/07/13 00:28:04;;;;;;;0.10;0.10;;;;;;;;;;5032182;28;20049;-85
2023/07/13 00:30:31;;;;;;;0.00;0.00;;;;;;;;;;5032225;28;20429;-85
2023/07/13 00:32:57;;;;;;;0.00;0.00;;;;;;;;;;5032243;28;20033;-85
2023/07/13 00:35:23;;;;;;;0.60;0.20;;;;;;;;;;5031953;28;20042;-85
2023/07/13 00:37:49;;;;;;;0.00;0.00;;;;;;;;;;5030263;28;20029;-85
2023/07/13 00:40:16;;;;;;;0.20;0.13;;;;;;;;;;5032456;28;20037;-85
2023/07/13 00:42:42;;;;;;;0.05;0.05;;;;;;;;;;5032071;28;20028;-85
2023/07/13 00:45:14;;;;;;;0.03;0.03;;;;;;;;;;5031293;28;20025;-85
2023/07/13 00:47:40;;;;;;;0.10;0.10;;;;;;;;;;5031852;28;20090;-85
2023/07/13 00:50:08;;;;;;;0.00;0.00;;;;;;;;;;5032211;28;20438;-85
2023/07/13 00:52:35;;;;;;;0.10;0.10;;;;;;;;;;5031580;28;20390;-85
2023/07/13 00:55:02;;;;;;;0.00;0.00;;;;;;;;;;5031987;28;20033;-85
2023/07/13 00:57:29;;;;;;;0.10;0.10;;;;;;;;;;5031844;28;20022;-85
2023/07/13 00:59:58;;;;;;;0.00;0.00;;;;;;;;;;5031559;28;20021;-85
2023/07/13 01:02:24;;;;;;;0.10;0.10;;;;;;;;;;5032192;28;20033;-85
2023/07/13 01:04:50;;;;;;;0.10;0.10;;;;;;;;;;5031652;28;20032;-85
2023/07/13 01:07:17;;;;;;;0.00;0.00;;;;;;;;;;5031572;28;20041;-85
2023/07/13 01:09:44;;;;;;;0.00;0.00;;;;;;;;;;5031911;28;20029;-85
2023/07/13 01:12:11;;;;;;;0.00;0.00;;;;;;;;;;5032009;28;20026;-85
2023/07/13 01:14:37;;;;;;;0.03;0.03;;;;;;;;;;5030085;28;20523;-85
2023/07/13 01:17:03;;;;;;;0.00;0.00;;;;;;;;;;5031548;28;20087;-85
2023/07/13 01:19:35;;;;;;;0.20;0.20;;;;;;;;;;5032104;28;20105;-85
2023/07/13 01:22:01;;;;;;;0.00;0.00;;;;;;;;;;5031205;28;20025;-85
2023/07/13 01:24:27;;;;;;;0.10;0.10;;;;;;;;;;5031504;28;20030;-86
2023/07/13 01:26:53;;;;;;;0.00;0.00;;;;;;;;;;5031739;28;20022;-85
2023/07/13 01:29:20;;;;;;;0.05;0.05;;;;;;;;;;5030721;28;20036;-85
2023/07/13 01:31:46;;;;;;;0.65;0.45;;;;;;;;;;5031616;28;20021;-85
2023/07/13 01:34:12;;;;;;;0.00;0.00;;;;;;;;;;5031437;28;20441;-86
2023/07/13 01:36:37;;;;;;;0.10;0.10;;;;;;;;;;5031095;28;20033;-85
2023/07/13 01:39:04;;;;;;;0.00;0.00;;;;;;;;;;5031380;28;20026;-85
2023/07/13 01:41:30;;;;;;;0.05;0.05;;;;;;;;;;5031675;28;20074;-85
2023/07/13 01:43:56;;;;;;;0.00;0.00;;;;;;;;;;5030939;28;20032;-85
2023/07/13 01:46:22;;;;;;;0.38;0.38;;;;;;;;;;5031746;28;20060;-85
2023/07/13 01:48:48;;;;;;;0.10;0.10;;;;;;;;;;5031383;28;20454;-85
2023/07/13 01:51:14;;;;;;;0.10;0.10;;;;;;;;;;5031025;28;20025;-85
2023/07/13 01:53:40;;;;;;;0.10;0.10;;;;;;;;;;5030143;28;20041;-85
2023/07/13 01:56:06;;;;;;;0.00;0.00;;;;;;;;;;5033862;28;20032;-85
2023/07/13 01:58:32;;;;;;;0.00;0.00;;;;;;;;;;5035260;28;20112;-85
2023/07/13 02:00:58;;;;;;;0.10;0.10;;;;;;;;;;5034753;28;20090;-85
2023/07/13 02:03:24;;;;;;;0.00;0.00;;;;;;;;;;5034676;28;20029;-86
2023/07/13 02:05:50;;;;;;;0.00;0.00;;;;;;;;;;5034847;28;20070;-85
2023/07/13 02:08:16;;;;;;;0.05;0.05;;;;;;;;;;5033417;28;20409;-85
2023/07/13 02:10:42;;;;;;;0.00;0.00;;;;;;;;;;5034843;28;20075;-85
2023/07/13 02:13:08;;;;;;;0.10;0.10;;;;;;;;;;5034764;28;20021;-85
2023/07/13 02:15:34;;;;;;;0.00;0.00;;;;;;;;;;5034300;28;20120;-85
2023/07/13 02:18:00;;;;;;;0.00;0.00;;;;;;;;;;5034445;28;20049;-86
2023/07/13 02:20:26;;;;;;;0.00;0.00;;;;;;;;;;5033222;28;20405;-85
2023/07/13 02:22:52;;;;;;;0.00;0.00;;;;;;;;;;5033280;28;20021;-85
2023/07/13 02:25:18;;;;;;;0.10;0.10;;;;;;;;;;5034382;28;20129;-85
2023/07/13 02:27:44;;;;;;;0.10;0.10;;;;;;;;;;5034357;28;20057;-85
2023/07/13 02:30:11;;;;;;;0.00;0.00;;;;;;;;;;5034986;28;20026;-85
2023/07/13 02:32:37;;;;;;;0.10;0.10;;;;;;;;;;5034040;28;20112;-85
2023/07/13 02:35:03;;;;;;;0.00;0.00;;;;;;;;;;5034107;28;20112;-85
2023/07/13 02:37:30;;;;;;;0.10;0.10;;;;;;;;;;5034191;28;20025;-85
2023/07/13 02:39:56;;;;;;;0.00;0.00;;;;;;;;;;5034321;28;20025;-85
2023/07/13 02:42:22;;;;;;;0.00;0.00;;;;;;;;;;5034152;28;20030;-85
2023/07/13 02:44:49;;;;;;;0.65;0.20;;;;;;;;;;5034085;28;20363;-85
2023/07/13 02:47:15;;;;;;;0.00;0.00;;;;;;;;;;5033854;28;20072;-85
2023/07/13 02:49:41;;;;;;;0.45;0.45;;;;;;;;;;5034541;28;20018;-85
2023/07/13 02:52:07;;;;;;;0.20;0.10;;;;;;;;;;5034156;28;20030;-85
2023/07/13 02:54:33;;;;;;;0.00;0.00;;;;;;;;;;5033901;28;20026;-85
2023/07/13 02:56:59;;;;;;;0.20;0.20;;;;;;;;;;5034084;28;20099;-85
2023/07/13 02:59:25;;;;;;;0.10;0.10;;;;;;;;;;5034271;28;20025;-85
2023/07/13 03:01:51;;;;;;;0.17;0.17;;;;;;;;;;5033685;28;20521;-84
2023/07/13 03:04:19;;;;;;;0.10;0.10;;;;;;;;;;5034161;28;20332;-85
2023/07/13 03:06:45;;;;;;;0.43;0.30;;;;;;;;;;5033977;28;20060;-85
2023/07/13 03:09:12;;;;;;;0.20;0.20;;;;;;;;;;5033783;28;20021;-85
2023/07/13 03:11:38;;;;;;;0.10;0.10;;;;;;;;;;5034183;28;20049;-85
2023/07/13 03:14:04;;;;;;;0.25;0.25;;;;;;;;;;5034067;28;20032;-85
2023/07/13 03:16:30;;;;;;;0.10;0.10;;;;;;;;;;5033125;28;20054;-85
2023/07/13 03:18:56;;;;;;;0.10;0.10;;;;;;;;;;5033700;28;20503;-85
2023/07/13 03:21:22;;;;;;;0.00;0.00;;;;;;;;;;5033590;28;20025;-85
2023/07/13 03:23:48;;;;;;;0.08;0.08;;;;;;;;;;5034025;28;20072;-86
2023/07/13 03:26:19;;;;;;;0.03;0.03;;;;;;;;;;5033782;28;20029;-85
2023/07/13 03:28:45;;;;;;;0.10;0.10;;;;;;;;;;5033436;28;20053;-85
2023/07/13 03:31:13;;;;;;;0.00;0.00;;;;;;;;;;5033583;28;20500;-85
2023/07/13 03:33:39;;;;;;;0.70;0.20;;;;;;;;;;5033355;28;20116;-85
2023/07/13 03:36:06;;;;;;;0.00;0.00;;;;;;;;;;5033279;28;20033;-85
2023/07/13 03:38:32;;;;;;;0.10;0.10;;;;;;;;;;5032043;28;20051;-85
2023/07/13 03:40:58;;;;;;;0.00;0.00;;;;;;;;;;5033251;28;20025;-85
2023/07/13 03:43:24;;;;;;;0.00;0.00;;;;;;;;;;5033502;28;20021;-85
2023/07/13 03:45:50;;;;;;;0.17;0.17;;;;;;;;;;5032857;28;20087;-85
2023/07/13 03:48:16;;;;;;;0.10;0.10;;;;;;;;;;5033118;28;20025;-85
2023/07/13 03:50:42;;;;;;;0.00;0.00;;;;;;;;;;5033161;28;20029;-85
2023/07/13 03:53:08;;;;;;;0.00;0.00;;;;;;;;;;5032976;28;20392;-85
2023/07/13 03:55:35;;;;;;;0.10;0.10;;;;;;;;;;5032925;28;20037;-86
2023/07/13 03:58:20;;;;;;;0.10;0.10;;;;;;;;;;5033333;28;20032;-85
2023/07/13 04:00:46;;;;;;;0.10;0.10;;;;;;;;;;5032537;28;20033;-85
2023/07/13 04:03:12;;;;;;;0.03;0.03;;;;;;;;;;5032841;28;20036;-85
2023/07/13 04:05:40;;;;;;;0.00;0.00;;;;;;;;;;5032698;28;20393;-85
2023/07/13 04:08:06;;;;;;;0.20;0.10;;;;;;;;;;5032926;28;20036;-85
2023/07/13 04:10:32;;;;;;;0.20;0.20;;;;;;;;;;5033231;28;20029;-85
2023/07/13 04:12:58;;;;;;;0.10;0.10;;;;;;;;;;5032706;28;20397;-85
2023/07/13 04:15:24;;;;;;;0.10;0.10;;;;;;;;;;5032465;28;20107;-85
2023/07/13 04:17:50;;;;;;;0.10;0.10;;;;;;;;;;5032405;28;20030;-85
2023/07/13 04:20:16;;;;;;;0.00;0.00;;;;;;;;;;5032197;28;20026;-85
2023/07/13 04:22:42;;;;;;;0.10;0.10;;;;;;;;;;5032309;28;20036;-85
2023/07/13 04:25:08;;;;;;;0.03;0.03;;;;;;;;;;5032755;28;20393;-85
2023/07/13 04:27:34;;;;;;;0.10;0.10;;;;;;;;;;5032438;28;20029;-85
2023/07/13 04:30:00;;;;;;;0.10;0.10;;;;;;;;;;5032140;28;20022;-84
2023/07/13 04:32:26;;;;;;;0.10;0.10;;;;;;;;;;5033042;28;20528;-85
2023/07/13 04:34:55;;;;;;;0.00;0.00;;;;;;;;;;5032447;28;20075;-85
2023/07/13 04:37:21;;;;;;;0.10;0.10;;;;;;;;;;5032187;28;20029;-85
2023/07/13 04:39:47;;;;;;;0.15;0.15;;;;;;;;;;5032359;28;20056;-85
2023/07/13 04:42:13;;;;;;;0.00;0.00;;;;;;;;;;5032275;28;20068;-85
2023/07/13 04:44:39;;;;;;;0.00;0.00;;;;;;;;;;5032283;28;20026;-85
2023/07/13 04:47:05;;;;;;;0.00;0.00;;;;;;;;;;5032406;28;20052;-85
2023/07/13 04:49:31;;;;;;;0.00;0.00;;;;;;;;;;5032220;28;20115;-85
2023/07/13 04:51:57;;;;;;;0.20;0.20;;;;;;;;;;5032224;28;20501;-85
2023/07/13 04:54:23;;;;;;;0.00;0.00;;;;;;;;;;5032001;28;20021;-84
2023/07/13 04:56:49;;;;;;;0.00;0.00;;;;;;;;;;5032150;28;20363;-85
2023/07/13 04:59:15;;;;;;;0.10;0.10;;;;;;;;;;5031770;28;20037;-85
2023/07/13 05:01:41;;;;;;;0.10;0.10;;;;;;;;;;5032263;28;20037;-85
2023/07/13 05:04:07;;;;;;;0.10;0.10;;;;;;;;;;5031981;28;20088;-85
2023/07/13 05:06:33;;;;;;;0.10;0.10;;;;;;;;;;5032227;28;20026;-85
2023/07/13 05:08:59;;;;;;;0.90;0.47;;;;;;;;;;5032199;28;20026;-85
2023/07/13 05:11:25;;;;;;;0.00;0.00;;;;;;;;;;5032135;28;20422;-85
2023/07/13 05:13:51;;;;;;;0.00;0.00;;;;;;;;;;5031541;28;20037;-85
2023/07/13 05:16:17;;;;;;;0.00;0.00;;;;;;;;;;5031851;28;20050;-85
2023/07/13 05:18:43;;;;;;;0.00;0.00;;;;;;;;;;5031852;28;20060;-85
2023/07/13 05:21:11;;;;;;;0.00;0.00;;;;;;;;;;5032401;28;20064;-93
2023/07/13 05:23:37;;;;;;;0.10;0.10;;;;;;;;;;5031629;28;20030;-85
2023/07/13 05:26:04;;;;;;;0.10;0.10;;;;;;;;;;5031839;28;20032;-84
2023/07/13 05:28:30;;;;;;;0.08;0.08;;;;;;;;;;5031457;28;20025;-85
2023/07/13 05:30:56;;;;;;;0.00;0.00;;;;;;;;;;5034432;28;20045;-85
2023/07/13 05:33:23;;;;;;;0.10;0.10;;;;;;;;;;5035639;28;20114;-85
2023/07/13 05:35:49;;;;;;;0.00;0.00;;;;;;;;;;5034246;28;20044;-85
2023/07/13 05:38:15;;;;;;;0.00;0.00;;;;;;;;;;5035467;28;20033;-85
2023/07/13 05:40:43;;;;;;;0.00;0.00;;;;;;;;;;5035873;28;20029;-86
2023/07/13 05:43:09;;;;;;;0.00;0.00;;;;;;;;;;5035026;28;20034;-86
2023/07/13 05:45:35;;;;;;;0.00;0.00;;;;;;;;;;5035511;28;20025;-86
2023/07/13 05:48:01;;;;;;;0.00;0.00;;;;;;;;;;5035740;28;20022;-85
2023/07/13 05:50:27;;;;;;;0.00;0.00;;;;;;;;;;5035367;28;20104;-85
2023/07/13 05:52:53;;;;;;;0.00;0.00;;;;;;;;;;5035326;28;20109;-85
2023/07/13 05:55:20;;;;;;;0.00;0.00;;;;;;;;;;5035119;28;20044;-86
2023/07/13 05:57:46;;;;;;;0.00;0.00;;;;;;;;;;5034271;28;20052;-86
2023/07/13 06:00:12;;;;;;;0.00;0.00;;;;;;;;;;5033677;28;20065;-86
2023/07/13 06:02:38;;;;;;;0.10;0.10;;;;;;;;;;5035077;28;20104;-86
2023/07/13 06:05:04;;;;;;;0.00;0.00;;;;;;;;;;5034980;28;20025;-85
2023/07/13 06:07:30;;;;;;;0.10;0.10;;;;;;;;;;5035104;28;20026;-86
2023/07/13 06:09:56;;;;;;;0.00;0.00;;;;;;;;;;5034735;28;20036;-85
2023/07/13 06:12:22;;;;;;;0.10;0.10;;;;;;;;;;5035266;28;20379;-86
2023/07/13 06:14:48;;;;;;;0.10;0.10;;;;;;;;;;5034833;28;20045;-85
2023/07/13 06:17:14;;;;;;;0.10;0.10;;;;;;;;;;5034682;28;20044;-85
2023/07/13 06:19:40;;;;;;;0.20;0.20;;;;;;;;;;5034915;28;20017;-86
2023/07/13 06:22:06;;;;;;;0.20;0.20;;;;;;;;;;5034692;28;20385;-85
2023/07/13 06:24:32;;;;;;;0.10;0.10;;;;;;;;;;5034597;28;20041;-86
2023/07/13 06:26:58;;;;;;;0.20;0.20;;;;;;;;;;5034551;28;20454;-86
2023/07/13 06:29:24;;;;;;;0.10;0.10;;;;;;;;;;5035072;28;20026;-85
2023/07/13 06:31:50;;;;;;;0.00;0.00;;;;;;;;;;5034499;28;20075;-86
2023/07/13 06:34:16;;;;;;;0.10;0.10;;;;;;;;;;5034560;28;20068;-86
2023/07/13 06:36:42;;;;;;;0.20;0.20;;;;;;;;;;5033201;28;20486;-86
2023/07/13 06:39:08;;;;;;;0.00;0.00;;;;;;;;;;5033710;28;20033;-86
2023/07/13 06:41:34;;;;;;;0.00;0.00;;;;;;;;;;5033456;28;20022;-86
2023/07/13 06:44:00;;;;;;;0.00;0.00;;;;;;;;;;5034663;28;20030;-86
2023/07/13 06:46:26;;;;;;;0.05;0.05;;;;;;;;;;5034006;28;20470;-85
2023/07/13 06:48:52;;;;;;;0.73;0.13;;;;;;;;;;5034106;28;20101;-85
2023/07/13 06:51:18;;;;;;;0.10;0.10;;;;;;;;;;5034304;28;20483;-87
2023/07/13 06:53:44;;;;;;;0.10;0.10;;;;;;;;;;5034116;28;20113;-86
2023/07/13 06:56:11;;;;;;;0.10;0.10;;;;;;;;;;5034136;28;20042;-87
2023/07/13 06:58:37;;;;;;;0.10;0.10;;;;;;;;;;5032714;28;20036;-84
2023/07/13 07:01:04;;;;;;;0.10;0.10;;;;;;;;;;5034049;28;20034;-83
2023/07/13 07:03:30;;;;;;;0.38;0.10;;;;;;;;;;5033983;28;20020;-83
2023/07/13 07:06:02;;;;;;;0.10;0.10;;;;;;;;;;5033907;28;20037;-83
2023/07/13 07:08:28;;;;;;;0.08;0.08;;;;;;;;;;5033493;28;20018;-83
2023/07/13 07:10:54;;;;;;;0.20;0.20;;;;;;;;;;5033954;28;20036;-83
2023/07/13 07:13:20;;;;;;;0.10;0.10;;;;;;;;;;5032394;28;20104;-83
2023/07/13 07:15:46;;;;;;;0.20;0.20;;;;;;;;;;5033430;28;20056;-83
2023/07/13 07:18:12;;;;;;;0.30;0.22;;;;;;;;;;5034403;28;20026;-83
2023/07/13 07:20:38;;;;;;;0.10;0.10;;;;;;;;;;5033722;28;20548;-83
2023/07/13 07:23:04;;;;;;;0.00;0.00;;;;;;;;;;5033188;28;20121;-83
2023/07/13 07:25:32;;;;;;;0.13;0.13;;;;;;;;;;5033797;28;20037;-82
2023/07/13 07:27:59;;;;;;;0.10;0.10;;;;;;;;;;5033513;28;20018;-83
2023/07/13 07:30:25;;;;;;;0.05;0.05;;;;;;;;;;5033875;28;20434;-83
2023/07/13 07:32:51;;;;;;;0.10;0.10;;;;;;;;;;5033839;28;20147;-83
2023/07/13 07:35:17;;;;;;;0.10;0.10;;;;;;;;;;5033392;28;20128;-83
2023/07/13 07:37:43;;;;;;;0.10;0.10;;;;;;;;;;5033042;28;20093;-82
2023/07/13 07:40:09;;;;;;;0.00;0.00;;;;;;;;;;5033922;28;20525;-83
2023/07/13 07:42:35;;;;;;;0.10;0.10;;;;;;;;;;5033338;28;20033;-83
2023/07/13 07:45:01;;;;;;;0.13;0.13;;;;;;;;;;5033393;28;20387;-83
2023/07/13 07:47:27;;;;;;;0.10;0.10;;;;;;;;;;5033636;28;20036;-83
2023/07/13 07:49:53;;;;;;;0.03;0.03;;;;;;;;;;5033095;28;20030;-83
2023/07/13 07:52:19;;;;;;;0.10;0.10;;;;;;;;;;5032569;28;20029;-82
2023/07/13 07:54:45;;;;;;;0.00;0.00;;;;;;;;;;5033012;28;20563;-83
2023/07/13 07:57:11;;;;;;;0.00;0.00;;;;;;;;;;5033143;28;20034;-83
2023/07/13 07:59:38;;;;;;;0.10;0.10;;;;;;;;;;5031802;28;20103;-82
2023/07/13 08:02:04;;;;;;;0.10;0.10;;;;;;;;;;5033291;28;20522;-83
2023/07/13 08:04:30;;;;;;;0.20;0.20;;;;;;;;;;5032875;28;20022;-83
2023/07/13 08:06:57;;;;;;;0.00;0.00;;;;;;;;;;5032963;28;20048;-83
2023/07/13 08:09:23;;;;;;;0.10;0.10;;;;;;;;;;5033465;28;20131;-82
2023/07/13 08:11:49;;;;;;;0.00;0.00;;;;;;;;;;5032601;28;20060;-83
2023/07/13 08:14:15;;;;;;;0.10;0.10;;;;;;;;;;5032543;28;20025;-82
2023/07/13 08:16:41;;;;;;;0.63;0.20;;;;;;;;;;5032687;28;20049;-83
2023/07/13 08:19:07;;;;;;;0.00;0.00;;;;;;;;;;5032615;28;20102;-83
2023/07/13 08:21:33;;;;;;;0.10;0.10;;;;;;;;;;5032916;28;20033;-83
2023/07/13 08:23:59;;;;;;;0.20;0.20;;;;;;;;;;5032370;28;20477;-83
2023/07/13 08:26:25;;;;;;;0.10;0.10;;;;;;;;;;5032353;28;20040;-83
2023/07/13 08:28:51;;;;;;;0.10;0.10;;;;;;;;;;5032467;28;20032;-82
2023/07/13 08:31:17;;;;;;;0.20;0.20;;;;;;;;;;5032427;28;20101;-82
2023/07/13 08:33:43;;;;;;;0.10;0.10;;;;;;;;;;5032650;28;20025;-82
2023/07/13 08:36:09;;;;;;;0.10;0.10;;;;;;;;;;5032022;28;20191;-82
2023/07/13 08:38:35;;;;;;;0.00;0.00;;;;;;;;;;5032157;28;20457;-82
2023/07/13 08:41:04;;;;;;;0.15;0.15;;;;;;;;;;5031982;28;20068;-88
2023/07/13 08:43:34;;;;;;;0.10;0.10;;;;;;;;;;5041988;28;20017;-84
2023/07/13 08:46:05;;;;;;;0.25;0.22;;;;;;;;;;5035039;28;20037;-84
2023/07/13 08:48:43;;;;;;;0.25;0.17;;;;;;;;;;5035091;28;20109;-84
2023/07/13 08:51:11;;;;;;;0.22;0.22;;;;;;;;;;5034535;28;20029;-84
2023/07/13 08:53:40;;;;;;;0.05;0.05;;;;;;;;;;5052020;28;20404;-84
2023/07/13 08:56:11;;;;;;;0.08;0.08;;;;;;;;;;5050183;28;20182;-84
2023/07/13 08:58:39;;;;;;;0.10;0.10;;;;;;;;;;5051937;28;20044;-84
2023/07/13 09:01:05;;;;;;;0.20;0.20;;;;;;;;;;5049314;28;20029;-84
2023/07/13 09:03:36;;;;;;;0.10;0.10;;;;;;;;;;5050150;28;20043;-84
2023/07/13 09:06:03;;;;;;;0.10;0.10;;;;;;;;;;5054686;28;20025;-84
2023/07/13 09:08:40;;;;;;;0.10;0.10;;;;;;;;;;5046086;28;20029;-84
2023/07/13 09:11:29;;;;;;;0.10;0.10;;;;;;;;;;5035428;28;20040;-83
2023/07/13 09:14:11;;;;;;;0.65;0.43;;;;;;;;;;5035825;28;20033;-85
2023/07/13 09:16:38;;;;;;;0.00;0.00;;;;;;;;;;5035632;28;20049;-85
2023/07/13 09:19:06;;;;;;;0.20;0.20;;;;;;;;;;5035493;28;20021;-85
2023/07/13 09:21:34;;;;;;;0.65;0.40;;;;;;;;;;5036182;28;20029;-85
2023/07/13 09:24:14;;;;;;;0.55;0.45;;;;;;;;;;5043249;28;20065;-84
2023/07/13 09:26:40;;;;;;;0.17;0.13;;;;;;;;;;5056066;28;20028;-84
2023/07/13 09:29:15;;;;;;;0.20;0.20;;;;;;;;;;5053822;28;20024;-83
2023/07/13 09:31:46;;;;;;;0.38;0.20;;;;;;;;;;5054098;28;20037;-84
2023/07/13 09:34:13;;;;;;;0.10;0.10;;;;;;;;;;5039305;28;20026;-84
2023/07/13 09:36:39;;;;;;;0.10;0.10;;;;;;;;;;5035368;28;20126;-84
2023/07/13 09:39:25;;;;;;;0.10;0.10;;;;;;;;;;5036302;28;20033;-84
2023/07/13 09:41:51;;;;;;;0.20;0.20;;;;;;;;;;5025770;28;20056;-84
2023/07/13 09:44:19;;;;;;;0.30;0.17;;;;;;;;;;5035573;28;20035;-84
2023/07/13 09:46:55;;;;;;;0.10;0.10;;;;;;;;;;5020279;28;20030;-84
2023/07/13 09:49:28;;;;;;;0.15;0.15;;;;;;;;;;5037389;28;20097;-84
2023/07/13 09:52:04;;;;;;;0.30;0.30;;;;;;;;;;5046076;28;20033;-84
2023/07/13 09:54:33;;;;;;;0.10;0.10;;;;;;;;;;5015157;28;20097;-84
2023/07/13 09:57:00;;;;;;;0.13;0.13;;;;;;;;;;5036497;28;20457;-85
2023/07/13 09:59:35;;;;;;;0.00;0.00;;;;;;;;;;5052433;28;20024;-86
2023/07/13 10:02:02;;;;;;;0.10;0.10;;;;;;;;;;5033466;28;20032;-84
2023/07/13 10:04:31;;;;;;;0.35;0.35;;;;;;;;;;5049156;28;20493;-85
2023/07/13 10:07:07;;;;;;;1.02;0.52;;;;;;;;;;5044915;28;20021;-86
2023/07/13 10:09:34;;;;;;;0.00;0.00;;;;;;;;;;5054960;28;20541;-85
2023/07/13 10:11:59;;;;;;;0.20;0.20;;;;;;;;;;5035942;28;20036;-84
2023/07/13 10:14:26;;;;;;;0.20;0.20;;;;;;;;;;5034578;28;20393;-85
2023/07/13 10:17:02;;;;;;;0.10;0.10;;;;;;;;;;5034231;28;20045;-84
2023/07/13 10:19:32;;;;;;;0.17;0.17;;;;;;;;;;5046175;28;20095;-86
2023/07/13 10:22:04;;;;;;;0.00;0.00;;;;;;;;;;5040566;28;20081;-85
2023/07/13 10:24:32;;;;;;;0.00;0.00;;;;;;;;;;5015000;28;20048;-84
2023/07/13 10:27:07;;;;;;;0.15;0.15;;;;;;;;;;5037206;28;20112;-86
2023/07/13 10:29:46;;;;;;;0.00;0.00;;;;;;;;;;5035117;28;20039;-85
2023/07/13 10:32:13;;;;;;;0.20;0.20;;;;;;;;;;5034469;28;20025;-85
2023/07/13 10:34:39;;;;;;;0.10;0.10;;;;;;;;;;5034057;28;20030;-85
2023/07/13 10:37:06;;;;;;;0.10;0.10;;;;;;;;;;5034059;28;20060;-84
2023/07/13 10:39:33;;;;;;;0.20;0.20;;;;;;;;;;5043534;28;20096;-86
2023/07/13 10:42:05;;;;;;;0.00;0.00;;;;;;;;;;5034393;28;20033;-85
2023/07/13 10:44:32;;;;;;;0.00;0.00;;;;;;;;;;5038879;28;20021;-85
2023/07/13 10:46:59;;;;;;;0.00;0.00;;;;;;;;;;5045860;28;20040;-85
2023/07/13 10:49:27;;;;;;;0.10;0.10;;;;;;;;;;5034466;28;20033;-84
2023/07/13 10:51:53;;;;;;;0.10;0.10;;;;;;;;;;5033500;28;20034;-85
2023/07/13 10:54:21;;;;;;;0.40;0.30;;;;;;;;;;5033862;28;20022;-85
2023/07/13 10:56:49;;;;;;;0.10;0.10;;;;;;;;;;5033596;28;20036;-85
2023/07/13 10:59:29;;;;;;;0.00;0.00;;;;;;;;;;5034163;28;20127;-85
2023/07/13 11:01:55;;;;;;;0.05;0.05;;;;;;;;;;5034363;28;20473;-84
2023/07/13 11:04:23;;;;;;;0.10;0.10;;;;;;;;;;5039373;28;20025;-88
2023/07/13 11:06:51;;;;;;;0.00;0.00;;;;;;;;;;5033787;28;20030;-84
2023/07/13 11:09:32;;;;;;;0.00;0.00;;;;;;;;;;5034854;28;20034;-85
2023/07/13 11:12:02;;;;;;;0.40;0.40;;;;;;;;;;5034121;28;20045;-85
2023/07/13 11:14:38;;;;;;;0.20;0.20;;;;;;;;;;5039055;28;20029;-85
2023/07/13 11:17:23;;;;;;;1.33;0.35;;;;;;;;;;5045298;28;20488;-86
2023/07/13 11:19:53;;;;;;;0.10;0.10;;;;;;;;;;5044559;28;20029;-84
2023/07/13 11:22:22;;;;;;;0.00;0.00;;;;;;;;;;5033120;28;20398;-84
2023/07/13 11:24:50;;;;;;;0.03;0.03;;;;;;;;;;5033488;28;20049;-84
2023/07/13 11:27:23;;;;;;;0.10;0.10;;;;;;;;;;5033093;28;20029;-84
2023/07/13 11:29:49;;;;;;;0.00;0.00;;;;;;;;;;5032880;28;20021;-84
2023/07/13 11:32:23;;;;;;;0.38;0.38;;;;;;;;;;5033483;28;20401;-84
2023/07/13 11:34:49;;;;;;;0.20;0.20;;;;;;;;;;5032634;28;20116;-84
2023/07/13 11:37:18;;;;;;;0.25;0.22;;;;;;;;;;5015861;28;20045;-84
2023/07/13 11:39:45;;;;;;;0.00;0.00;;;;;;;;;;5013565;28;20097;-84
2023/07/13 11:42:13;;;;;;;0.22;0.10;;;;;;;;;;5012090;28;20367;-84
2023/07/13 11:44:43;;;;;;;0.20;0.20;;;;;;;;;;5016452;28;20046;-84
2023/07/13 11:47:10;;;;;;;0.03;0.03;;;;;;;;;;5015053;28;20117;-84
2023/07/13 11:49:47;;;;;;;0.20;0.20;;;;;;;;;;5032458;28;20057;-84
2023/07/13 11:52:23;;;;;;;0.15;0.15;;;;;;;;;;5033312;28;20036;-84
2023/07/13 11:54:55;;;;;;;0.20;0.17;;;;;;;;;;5033050;28;20032;-84
2023/07/13 11:57:27;;;;;;;0.20;0.20;;;;;;;;;;5032187;28;20397;-84
2023/07/13 11:59:53;;;;;;;0.20;0.20;;;;;;;;;;5028846;28;20100;-84
2023/07/13 12:02:32;;;;;;;0.25;0.25;;;;;;;;;;5012988;28;20390;-84
2023/07/13 12:04:59;;;;;;;0.38;0.30;;;;;;;;;;5013025;28;20026;-84
2023/07/13 12:07:28;;;;;;;0.15;0.15;;;;;;;;;;5012803;28;20549;-84
2023/07/13 12:09:54;;;;;;;0.10;0.10;;;;;;;;;;5012786;28;20026;-84
2023/07/13 12:12:22;;;;;;;0.28;0.28;;;;;;;;;;5012733;28;20489;-84
2023/07/13 12:14:52;;;;;;;0.20;0.20;;;;;;;;;;5012515;28;20391;-84
2023/07/13 12:17:22;;;;;;;0.30;0.20;;;;;;;;;;5012645;28;20429;-84
2023/07/13 12:19:49;;;;;;;0.00;0.00;;;;;;;;;;5012556;28;20108;-84
2023/07/13 12:22:16;;;;;;;0.00;0.00;;;;;;;;;;5014190;28;20029;-84
2023/07/13 12:24:43;;;;;;;0.00;0.00;;;;;;;;;;5032533;28;20108;-84
2023/07/13 12:27:36;;;;;;;0.10;0.10;;;;;;;;;;5031994;28;20040;-84
2023/07/13 12:30:05;;;;;;;0.35;0.30;;;;;;;;;;5029477;28;20083;-84
2023/07/13 12:32:31;;;;;;;0.00;0.00;;;;;;;;;;5032278;28;20110;-85
2023/07/13 12:35:04;;;;;;;0.10;0.10;;;;;;;;;;5032215;28;20021;-85
2023/07/13 12:37:31;;;;;;;0.03;0.03;;;;;;;;;;5032107;28;20034;-84
2023/07/13 12:39:57;;;;;;;0.05;0.05;;;;;;;;;;5031201;28;20022;-84
2023/07/13 12:42:27;;;;;;;0.32;0.15;;;;;;;;;;5031691;28;20112;-84
2023/07/13 12:44:55;;;;;;;0.38;0.38;;;;;;;;;;5032204;28;20021;-84
2023/07/13 12:47:22;;;;;;;0.25;0.10;;;;;;;;;;5031841;28;20389;-84
2023/07/13 12:49:50;;;;;;;0.10;0.10;;;;;;;;;;5031912;28;20022;-84
2023/07/13 12:52:24;;;;;;;0.10;0.10;;;;;;;;;;5032147;28;20029;-84
2023/07/13 12:54:56;;;;;;;0.10;0.10;;;;;;;;;;5031976;28;20036;-84
2023/07/13 12:57:22;;;;;;;0.10;0.10;;;;;;;;;;5031938;28;20037;-84
2023/07/13 12:59:52;;;;;;;0.00;0.00;;;;;;;;;;5031865;28;20021;-84
2023/07/13 13:02:23;;;;;;;0.10;0.10;;;;;;;;;;5031911;28;20401;-84
2023/07/13 13:04:49;;;;;;;1.10;0.80;;;;;;;;;;5012651;28;20426;-84
2023/07/13 13:07:15;;;;;;;0.65;0.32;;;;;;;;;;5024828;28;20037;-85
2023/07/13 13:09:41;;;;;;;0.10;0.10;;;;;;;;;;5051654;28;20014;-84
2023/07/13 13:12:07;;;;;;;0.00;0.00;;;;;;;;;;5037507;28;20496;-84
2023/07/13 13:14:34;;;;;;;0.10;0.10;;;;;;;;;;5042967;28;20032;-85
2023/07/13 13:17:00;;;;;;;0.20;0.20;;;;;;;;;;5051796;28;20025;-85
2023/07/13 13:19:28;;;;;;;0.00;0.00;;;;;;;;;;5051533;28;20478;-84
2023/07/13 13:21:56;;;;;;;0.00;0.00;;;;;;;;;;5051970;28;20167;-85
2023/07/13 13:24:23;;;;;;;0.15;0.15;;;;;;;;;;5032268;28;20033;-85
2023/07/13 13:26:50;;;;;;;0.00;0.00;;;;;;;;;;5031132;28;20052;-85
2023/07/13 13:29:21;;;;;;;0.00;0.00;;;;;;;;;;5031477;28;20033;-84
2023/07/13 13:31:47;;;;;;;0.10;0.10;;;;;;;;;;5031514;28;20498;-84
2023/07/13 13:34:15;;;;;;;0.57;0.43;;;;;;;;;;5031641;28;20037;-84
2023/07/13 13:36:42;;;;;;;0.00;0.00;;;;;;;;;;5031797;28;20037;-84
2023/07/13 13:39:20;;;;;;;0.30;0.10;;;;;;;;;;5031411;28;20021;-85
2023/07/13 13:41:46;;;;;;;0.00;0.00;;;;;;;;;;5031549;28;20033;-84
2023/07/13 13:44:14;;;;;;;0.10;0.10;;;;;;;;;;5032041;28;20417;-83
2023/07/13 13:46:40;;;;;;;0.20;0.20;;;;;;;;;;5031516;28;20037;-84
2023/07/13 13:49:09;;;;;;;0.10;0.00;;;;;;;;;;5031351;28;20029;-85
2023/07/13 13:51:35;;;;;;;0.28;0.17;;;;;;;;;;5033379;28;20029;-84
2023/07/13 13:54:01;;;;;;;0.10;0.10;;;;;;;;;;5034779;28;20030;-84
2023/07/13 13:56:27;;;;;;;0.08;0.08;;;;;;;;;;5034909;28;20493;-84
2023/07/13 13:58:53;;;;;;;0.10;0.10;;;;;;;;;;5035078;28;20028;-84
2023/07/13 14:01:24;;;;;;;0.03;0.03;;;;;;;;;;5034870;28;20442;-84
2023/07/13 14:03:51;;;;;;;0.55;0.35;;;;;;;;;;5036035;28;20477;-84
2023/07/13 14:06:17;;;;;;;0.08;0.08;;;;;;;;;;5034969;28;20013;-84
2023/07/13 14:08:43;;;;;;;0.00;0.00;;;;;;;;;;5034727;28;20032;-84
2023/07/13 14:11:14;;;;;;;0.10;0.10;;;;;;;;;;5035330;28;20022;-84
2023/07/13 14:13:42;;;;;;;0.10;0.10;;;;;;;;;;5032952;28;20029;-84
2023/07/13 14:16:12;;;;;;;0.08;0.08;;;;;;;;;;5034509;28;20570;-84
2023/07/13 14:18:38;;;;;;;0.10;0.10;;;;;;;;;;5033325;28;20033;-85
2023/07/13 14:21:09;;;;;;;0.63;0.38;;;;;;;;;;5034904;28;20025;-84
2023/07/13 14:23:35;;;;;;;0.20;0.10;;;;;;;;;;5034143;28;20108;-84
2023/07/13 14:26:01;;;;;;;0.10;0.10;;;;;;;;;;5034563;28;20489;-84
2023/07/13 14:28:28;;;;;;;0.20;0.20;;;;;;;;;;5034394;28;20036;-84
2023/07/13 14:30:54;;;;;;;0.20;0.20;;;;;;;;;;5034798;28;20025;-84
2023/07/13 14:33:21;;;;;;;0.10;0.10;;;;;;;;;;5034415;28;20053;-84
2023/07/13 14:35:47;;;;;;;0.00;0.00;;;;;;;;;;5034411;28;20486;-84
2023/07/13 14:38:16;;;;;;;0.10;0.05;;;;;;;;;;5034300;28;20021;-84
2023/07/13 14:40:42;;;;;;;0.30;0.20;;;;;;;;;;5034588;28;20035;-85
2023/07/13 14:43:12;;;;;;;0.20;0.20;;;;;;;;;;5034414;28;20096;-84
2023/07/13 14:45:40;;;;;;;0.00;0.00;;;;;;;;;;5034197;28;20017;-84